Sioux Gateway Col. Bud Day Field Sioux City US
ICAO: KSUX
IATA: SUX
Category: Large
Scheduled Services: Yes

Elevation: 1098 ft
TransAlt. 18000 ft.

Airport Communications:
SIOUX CITY APP/DEP:124.6
ATIS:119.45
CTAF:118.7
GND:121.9
ANG COMD POST:37.31
FORT DODGE RDO:122.45
SIOUX CITY TWR:118.7
UNICOM:122.95

KSUX Zoom In..

If you have problems with the map follow the link
https://www.worldairports.se/pages/airport.php?
ICAO=KSUX

Runways:

(A) RW 13 length 9002 ft width 150 ft
ILS 111.30 / hdg 130

(B) RW 17 length 6600 ft width 150 ft
---- / hdg 175

(C) RW 31 length 9002 ft width 150 ft
ILS 109.30 / hdg 310

(D) RW 35 length 6600 ft width 150 ft
---- / hdg 355

Location; KSUX
Day. 06 / Time. 03.52 Zulu
* Altimeter: 30.19
* Temperature: 00° c. 32°f.
* Wind from: 350° Speed 14 kn with Gusts up to 22 kn.
Dewpoint: -03° c.
Visibility: 10 Statute Miles.
Clouds: Overcast 1600 ft.

KSUX 060352Z AUTO 35014G22KT 10SM OVC016 00/M03 A3019 RMK AO2 PK WND 35026/0316 SLP235 T00001028


Wind From 350°
Speed 14 kn.

 
 
jpsmedia worldairports.se 2019   terms of use